Time;durP1;ratioP1;P1;durP2;ratioP2;P2;SDS_P1;SDS_P2;PMS_P1;PMS_P2;Temp;Humidity;BMP_temperature;BMP_pressure;BME280_temperature;BME280_humidity;BME280_pressure;Samples;Min_cycle;Max_cycle;Signal;HPM_P1;HPM_P2
2023/03/28 00:00:43;;;;;;;5.88;1.35;;;;;;;5.73;62.18;102790.91;5104986;27;20116;-43
2023/03/28 00:03:13;;;;;;;6.85;1.92;;;;;;;5.72;62.21;102791.69;5107888;27;20032;-44
2023/03/28 00:05:39;;;;;;;5.03;1.30;;;;;;;5.73;62.54;102791.75;5106976;27;20097;-44
2023/03/28 00:08:05;;;;;;;9.05;1.60;;;;;;;5.76;62.33;102796.25;5111785;27;20036;-44
2023/03/28 00:10:31;;;;;;;7.05;1.50;;;;;;;5.76;62.66;102793.66;5104653;28;20034;-43
2023/03/28 00:12:56;;;;;;;5.13;1.60;;;;;;;5.74;62.82;102795.25;5108017;27;20032;-45
2023/03/28 00:15:22;;;;;;;5.85;1.30;;;;;;;5.76;62.26;102800.53;5106359;27;20494;-43
2023/03/28 00:17:48;;;;;;;6.13;1.52;;;;;;;5.76;62.37;102804.00;5103516;27;20515;-43
2023/03/28 00:20:14;;;;;;;4.85;1.33;;;;;;;5.82;62.34;102807.00;5107017;27;20036;-44
2023/03/28 00:22:40;;;;;;;6.18;1.50;;;;;;;5.84;62.09;102807.09;5103737;27;20114;-42
2023/03/28 00:25:07;;;;;;;8.65;1.60;;;;;;;5.83;62.29;102810.47;5107201;27;20122;-45
2023/03/28 00:27:33;;;;;;;7.78;1.50;;;;;;;5.85;61.87;102806.31;5104101;28;20058;-43
2023/03/28 00:30:00;;;;;;;4.75;1.20;;;;;;;5.87;61.84;102802.09;5106909;27;20443;-46
2023/03/28 00:32:26;;;;;;;5.13;1.40;;;;;;;5.89;62.28;102800.53;5106958;27;20442;-43
2023/03/28 00:34:51;;;;;;;7.78;1.45;;;;;;;5.89;61.90;102795.38;5102768;27;20055;-48
2023/03/28 00:37:16;;;;;;;5.55;1.20;;;;;;;5.90;62.35;102807.50;5106173;27;20032;-44
2023/03/28 00:39:48;;;;;;;6.18;1.45;;;;;;;5.96;62.05;102802.72;5107677;27;20379;-46
2023/03/28 00:42:14;;;;;;;5.55;1.27;;;;;;;5.89;62.50;102803.13;5107929;28;20051;-46
2023/03/28 00:44:54;;;;;;;3.25;1.20;;;;;;;5.94;61.88;102801.72;5107380;28;20457;-46
2023/03/28 00:47:37;;;;;;;5.55;1.45;;;;;;;5.79;62.12;102796.47;5103452;27;20080;-44
2023/03/28 00:50:09;;;;;;;6.50;1.45;;;;;;;5.86;61.63;102793.44;5103381;28;20437;-45
2023/03/28 00:52:41;;;;;;;5.97;1.48;;;;;;;5.87;61.49;102791.75;5102141;27;20122;-45
2023/03/28 00:55:11;;;;;;;5.35;1.50;;;;;;;5.80;61.78;102795.63;5104071;28;20028;-45
2023/03/28 00:57:37;;;;;;;5.55;1.30;;;;;;;5.80;61.60;102797.31;5101229;27;20500;-44
2023/03/28 01:00:11;;;;;;;7.03;1.50;;;;;;;5.79;61.94;102785.22;5105912;27;20051;-42
2023/03/28 01:02:38;;;;;;;6.18;1.48;;;;;;;5.71;61.77;102785.63;5101160;28;20069;-45
2023/03/28 01:05:04;;;;;;;5.70;1.20;;;;;;;5.65;61.42;102781.75;5106091;28;20028;-45
2023/03/28 01:07:38;;;;;;;5.70;1.42;;;;;;;5.57;62.00;102780.34;5105981;27;20028;-42
2023/03/28 01:10:04;;;;;;;3.78;1.10;;;;;;;5.49;62.10;102782.44;5101883;28;20028;-45
2023/03/28 01:12:31;;;;;;;4.47;1.35;;;;;;;5.52;62.41;102776.59;5105816;27;20081;-44
2023/03/28 01:14:57;;;;;;;7.20;1.50;;;;;;;5.54;61.79;102777.59;5101756;28;20096;-46
2023/03/28 01:17:24;;;;;;;4.00;1.27;;;;;;;5.54;61.88;102769.81;5109598;27;20027;-42
2023/03/28 01:20:08;;;;;;;5.32;1.30;;;;;;;5.54;61.99;102770.72;5109911;28;20096;-46
2023/03/28 01:23:08;;;;;;;8.55;1.50;;;;;;;5.53;62.00;102766.34;5107092;28;20054;-48
2023/03/28 01:26:11;;;;;;;9.23;1.50;;;;;;;5.51;62.46;102759.25;5109338;27;20071;-44
2023/03/28 01:28:55;;;;;;;6.25;1.50;;;;;;;5.51;62.20;102767.03;5107309;28;20031;-46
2023/03/28 01:32:00;;;;;;;3.33;1.40;;;;;;;5.51;62.43;102762.75;5113268;27;20032;-43
2023/03/28 01:34:55;;;;;;;3.92;1.25;;;;;;;5.51;62.08;102764.44;5102311;27;20036;-46
2023/03/28 01:37:41;;;;;;;3.87;1.50;;;;;;;5.43;62.64;102758.75;5109489;28;20035;-43
2023/03/28 01:40:25;;;;;;;6.03;1.30;;;;;;;5.47;62.52;102759.88;5111171;27;20314;-48
2023/03/28 01:43:27;;;;;;;4.97;1.58;;;;;;;5.44;62.67;102760.56;5105664;27;20598;-42
2023/03/28 01:46:14;;;;;;;7.60;1.50;;;;;;;5.43;62.31;102761.34;5100107;28;20500;-44
2023/03/28 01:48:57;;;;;;;4.88;1.30;;;;;;;5.42;62.32;102759.59;5100313;28;20046;-44
2023/03/28 01:51:51;;;;;;;7.55;1.48;;;;;;;5.33;62.65;102769.31;5106113;27;20464;-44
2023/03/28 01:54:40;;;;;;;5.97;1.30;;;;;;;5.39;62.70;102768.81;5101384;27;20528;-46
2023/03/28 01:57:14;;;;;;;4.97;1.20;;;;;;;5.40;62.35;102770.63;5099418;28;20670;-50
2023/03/28 01:59:49;;;;;;;5.83;1.77;;;;;;;5.38;62.36;102764.44;5100924;27;20103;-44
2023/03/28 02:02:33;;;;;;;3.88;1.35;;;;;;;5.39;62.83;102767.13;5104967;28;20518;-42
2023/03/28 02:05:04;;;;;;;4.03;1.27;;;;;;;5.40;62.54;102768.94;5100785;27;20058;-42
2023/03/28 02:07:32;;;;;;;6.50;1.23;;;;;;;5.40;62.35;102773.22;5110222;27;20020;-62
2023/03/28 02:10:00;;;;;;;5.53;1.27;;;;;;;5.39;62.70;102764.56;5109276;28;20487;-43
2023/03/28 02:12:31;;;;;;;5.60;1.70;;;;;;;5.41;62.86;102762.97;5105203;27;20147;-47
2023/03/28 02:14:59;;;;;;;6.97;1.48;;;;;;;5.41;62.67;102769.81;5101598;28;20083;-43
2023/03/28 02:17:27;;;;;;;4.20;1.23;;;;;;;5.42;62.46;102766.44;5105326;27;20034;-44
2023/03/28 02:20:05;;;;;;;5.45;1.20;;;;;;;5.40;62.21;102756.00;5100879;28;20083;-46
2023/03/28 02:22:37;;;;;;;4.13;1.20;;;;;;;5.34;62.33;102753.03;5101212;27;20110;-44
2023/03/28 02:25:03;;;;;;;4.47;1.30;;;;;;;5.32;62.15;102755.50;5104075;27;20448;-44
2023/03/28 02:27:29;;;;;;;5.53;1.38;;;;;;;5.29;62.59;102760.50;5105772;27;20058;-44
2023/03/28 02:29:55;;;;;;;4.50;1.25;;;;;;;5.28;62.30;102752.63;5108599;27;20104;-43
2023/03/28 02:32:22;;;;;;;3.70;1.50;;;;;;;5.24;62.28;102746.38;5110485;27;20545;-43
2023/03/28 02:34:51;;;;;;;5.97;1.40;;;;;;;5.21;62.42;102748.75;5106781;27;20043;-43
2023/03/28 02:37:19;;;;;;;3.67;1.27;;;;;;;5.21;62.30;102750.44;5110139;28;20043;-44
2023/03/28 02:39:47;;;;;;;4.47;1.48;;;;;;;5.18;62.26;102751.16;5107206;28;20055;-44
2023/03/28 02:42:36;;;;;;;7.78;1.50;;;;;;;5.20;62.36;102748.63;5108926;28;20031;-43
2023/03/28 02:45:22;;;;;;;5.32;1.48;;;;;;;5.18;62.50;102745.09;5099150;28;20041;-43
2023/03/28 02:48:14;;;;;;;5.15;1.65;;;;;;;5.13;62.51;102751.63;5098482;28;20036;-46
2023/03/28 02:51:13;;;;;;;4.25;1.60;;;;;;;5.08;62.49;102743.56;5103832;28;20043;-44
2023/03/28 02:53:50;;;;;;;4.75;1.40;;;;;;;5.01;62.13;102743.97;5096591;27;20539;-45
2023/03/28 02:56:24;;;;;;;5.97;1.70;;;;;;;4.98;62.54;102746.34;5102645;28;20387;-44
2023/03/28 02:59:00;;;;;;;6.32;1.67;;;;;;;4.98;62.98;102742.88;5099609;28;20430;-44
2023/03/28 03:01:29;;;;;;;5.72;1.63;;;;;;;4.98;62.63;102736.03;5102249;28;20517;-43
2023/03/28 03:03:54;;;;;;;6.18;1.92;;;;;;;4.96;62.97;102736.69;5099572;28;20161;-46
2023/03/28 03:06:20;;;;;;;4.60;1.40;;;;;;;4.95;63.14;102740.06;5104161;28;20160;-43
2023/03/28 03:08:45;;;;;;;4.75;1.67;;;;;;;4.92;62.88;102739.88;5100229;28;20142;-45
2023/03/28 03:11:11;;;;;;;4.32;1.60;;;;;;;4.90;62.87;102732.03;5103782;28;20114;-47
2023/03/28 03:13:36;;;;;;;4.68;1.80;;;;;;;4.90;62.61;102740.69;5100453;28;20080;-46
2023/03/28 03:16:02;;;;;;;8.15;2.10;;;;;;;4.89;62.99;102735.41;5104363;28;20039;-43
2023/03/28 03:18:28;;;;;;;4.55;1.83;;;;;;;4.93;62.78;102741.69;5106124;27;20084;-43
2023/03/28 03:20:53;;;;;;;5.60;2.30;;;;;;;4.88;63.00;102737.09;5105300;27;20500;-48
2023/03/28 03:23:19;;;;;;;7.65;2.17;;;;;;;4.95;63.53;102734.91;5109353;27;20081;-43
2023/03/28 03:25:45;;;;;;;5.28;2.00;;;;;;;4.98;63.35;102735.13;5107462;27;20035;-44
2023/03/28 03:28:11;;;;;;;7.32;2.03;;;;;;;5.00;63.05;102737.00;5113075;27;20028;-44
2023/03/28 03:30:37;;;;;;;5.38;1.90;;;;;;;4.99;63.19;102731.75;5111974;27;20031;-44
2023/03/28 03:33:04;;;;;;;4.40;2.00;;;;;;;4.98;63.22;102733.44;5109456;28;20065;-45
2023/03/28 03:35:32;;;;;;;4.07;1.70;;;;;;;5.07;63.05;102736.59;5106636;28;20043;-59
2023/03/28 03:37:58;;;;;;;6.68;2.00;;;;;;;5.12;62.83;102731.75;5106650;28;20035;-44
2023/03/28 03:40:23;;;;;;;5.80;1.92;;;;;;;5.17;62.93;102727.78;5108103;28;20089;-43
2023/03/28 03:42:49;;;;;;;3.92;1.95;;;;;;;5.21;62.75;102727.16;5103610;27;20507;-43
2023/03/28 03:45:14;;;;;;;6.13;2.20;;;;;;;5.24;62.52;102722.22;5108118;27;20529;-45
2023/03/28 03:47:40;;;;;;;3.72;1.80;;;;;;;5.25;62.14;102721.38;5104337;27;20031;-42
2023/03/28 03:50:06;;;;;;;7.30;2.08;;;;;;;5.27;62.18;102709.47;5107548;28;20028;-44
2023/03/28 03:52:32;;;;;;;5.25;1.80;;;;;;;5.27;61.91;102712.94;5107952;28;20501;-43
2023/03/28 03:54:57;;;;;;;5.20;1.65;;;;;;;5.32;62.21;102708.94;5104166;28;20039;-43
2023/03/28 03:57:22;;;;;;;5.35;1.80;;;;;;;5.35;62.17;102716.03;5107637;28;20032;-42
2023/03/28 03:59:48;;;;;;;8.68;2.00;;;;;;;5.30;61.75;102718.31;5100895;28;20177;-45
2023/03/28 04:02:13;;;;;;;4.65;2.10;;;;;;;5.34;61.60;102723.69;5107249;27;20438;-46
2023/03/28 04:04:40;;;;;;;6.60;1.90;;;;;;;5.28;61.39;102722.50;5103624;27;20050;-44
2023/03/28 04:07:05;;;;;;;6.28;1.80;;;;;;;5.37;61.64;102723.88;5107766;28;20080;-45
2023/03/28 04:09:31;;;;;;;4.63;1.75;;;;;;;5.43;61.67;102725.13;5107283;28;20118;-43
2023/03/28 04:11:56;;;;;;;4.50;1.80;;;;;;;5.44;61.26;102714.00;5103278;27;20107;-44
2023/03/28 04:14:22;;;;;;;5.30;1.90;;;;;;;5.44;61.42;102721.75;5107218;27;20089;-45
2023/03/28 04:16:49;;;;;;;8.70;2.00;;;;;;;5.40;61.17;102717.19;5103652;27;20036;-45
2023/03/28 04:19:16;;;;;;;6.00;2.30;;;;;;;5.40;61.08;102721.47;5107784;27;20045;-43
2023/03/28 04:21:46;;;;;;;4.70;2.10;;;;;;;5.42;61.18;102715.63;5103347;28;20041;-44
2023/03/28 04:24:15;;;;;;;8.63;2.03;;;;;;;5.43;61.10;102722.56;5107663;27;20036;-43
2023/03/28 04:26:41;;;;;;;5.20;2.17;;;;;;;5.49;60.88;102719.50;5103519;27;20081;-44
2023/03/28 04:29:08;;;;;;;7.55;2.33;;;;;;;5.49;60.70;102722.94;5106218;27;20035;-46
2023/03/28 04:31:38;;;;;;;9.38;2.20;;;;;;;5.51;60.63;102713.59;5102838;27;20039;-44
2023/03/28 04:34:05;;;;;;;6.80;2.40;;;;;;;5.47;60.91;102721.97;5106439;28;20516;-45
2023/03/28 04:36:30;;;;;;;5.85;2.58;;;;;;;5.48;60.97;102717.69;5102526;27;20036;-43
2023/03/28 04:38:58;;;;;;;7.72;2.17;;;;;;;5.45;60.93;102720.06;5106641;28;20931;-45
2023/03/28 04:41:24;;;;;;;8.20;2.47;;;;;;;5.44;61.27;102724.34;5106157;27;20085;-50
2023/03/28 04:43:50;;;;;;;7.53;2.28;;;;;;;5.47;61.33;102718.50;5103081;27;20138;-44
2023/03/28 04:46:16;;;;;;;7.10;2.50;;;;;;;5.49;61.97;102716.91;5107749;27;20092;-44
2023/03/28 04:48:41;;;;;;;6.35;2.35;;;;;;;5.52;61.37;102717.97;5102892;27;20127;-45
2023/03/28 04:51:06;;;;;;;8.40;2.60;;;;;;;5.52;61.46;102719.66;5105879;27;20110;-43
2023/03/28 04:53:32;;;;;;;7.40;2.60;;;;;;;5.49;62.51;102716.91;5102447;27;20062;-44
2023/03/28 04:55:58;;;;;;;9.40;2.65;;;;;;;5.52;62.00;102712.81;5106513;27;20182;-43
2023/03/28 04:58:24;;;;;;;5.78;2.50;;;;;;;5.62;61.59;102719.44;5107034;27;20055;-45
2023/03/28 05:00:50;;;;;;;8.27;2.65;;;;;;;5.51;62.35;102717.88;5102409;28;20147;-45
2023/03/28 05:03:17;;;;;;;6.40;2.65;;;;;;;5.57;62.06;102718.25;5106149;28;20036;-46
2023/03/28 05:05:44;;;;;;;7.88;2.58;;;;;;;5.51;62.46;102710.09;5102077;28;20053;-45
2023/03/28 05:08:11;;;;;;;10.05;2.53;;;;;;;5.49;62.55;102712.59;5105281;27;20024;-44
2023/03/28 05:10:37;;;;;;;9.13;2.70;;;;;;;5.51;62.37;102716.19;5102730;27;20027;-44
2023/03/28 05:13:03;;;;;;;9.85;2.85;;;;;;;5.51;63.26;102717.88;5106571;28;20034;-43
2023/03/28 05:15:28;;;;;;;8.70;2.47;;;;;;;5.56;62.73;102713.88;5107207;28;20176;-42
2023/03/28 05:17:53;;;;;;;6.32;2.40;;;;;;;5.53;63.68;102716.28;5109612;27;20116;-43
2023/03/28 05:20:19;;;;;;;8.90;2.70;;;;;;;5.63;63.09;102716.06;5112717;28;20054;-46
2023/03/28 05:22:46;;;;;;;8.98;2.78;;;;;;;5.62;63.33;102719.44;5104611;27;20476;-45
2023/03/28 05:25:11;;;;;;;7.07;2.63;;;;;;;5.69;63.08;102724.19;5111004;27;20095;-45
2023/03/28 05:27:37;;;;;;;6.80;2.70;;;;;;;5.72;62.92;102722.72;5108884;27;20469;-44
2023/03/28 05:30:05;;;;;;;8.57;2.80;;;;;;;5.68;63.62;102722.41;5113017;28;20024;-44
2023/03/28 05:32:30;;;;;;;8.52;2.85;;;;;;;5.83;63.18;102725.06;5113272;28;20059;-43
2023/03/28 05:34:56;;;;;;;7.28;2.60;;;;;;;5.84;63.20;102726.84;5108905;27;20584;-46
2023/03/28 05:37:21;;;;;;;8.65;3.15;;;;;;;5.86;63.28;102728.72;5108057;28;20110;-44
2023/03/28 05:39:46;;;;;;;9.45;2.88;;;;;;;5.91;63.18;102735.13;5102776;27;20448;-45
2023/03/28 05:42:12;;;;;;;9.05;2.78;;;;;;;5.98;62.93;102726.03;5105531;28;20442;-48
2023/03/28 05:44:37;;;;;;;6.60;2.58;;;;;;;6.11;62.79;102731.16;5102070;27;20031;-43
2023/03/28 05:47:02;;;;;;;11.18;2.90;;;;;;;6.17;62.42;102728.03;5106744;27;20036;-44
2023/03/28 05:49:27;;;;;;;10.20;3.20;;;;;;;6.16;62.59;102729.72;5105681;27;20035;-43
2023/03/28 05:51:53;;;;;;;8.73;2.60;;;;;;;6.27;62.47;102720.94;5102159;27;20055;-44
2023/03/28 05:54:18;;;;;;;8.95;2.83;;;;;;;6.31;62.33;102725.50;5106292;28;20027;-47
2023/03/28 05:56:43;;;;;;;8.15;2.85;;;;;;;6.37;62.30;102727.56;5101759;27;20028;-46
2023/03/28 05:59:09;;;;;;;6.25;2.80;;;;;;;6.42;62.31;102729.59;5108141;28;20150;-46
2023/03/28 06:01:35;;;;;;;9.20;3.00;;;;;;;6.53;62.26;102713.00;5102228;27;20113;-45
2023/03/28 06:04:02;;;;;;;6.82;2.85;;;;;;;6.58;62.06;102720.16;5104319;27;20202;-46
2023/03/28 06:06:28;;;;;;;9.18;2.92;;;;;;;6.62;61.85;102725.63;5105004;27;20496;-44
2023/03/28 06:08:53;;;;;;;10.60;3.13;;;;;;;6.66;61.68;102724.97;5101402;28;20529;-45
2023/03/28 06:11:19;;;;;;;8.52;2.90;;;;;;;6.81;61.31;102725.88;5105060;27;20034;-43
2023/03/28 06:13:44;;;;;;;9.68;2.90;;;;;;;6.93;61.41;102729.19;5101152;27;20040;-44
2023/03/28 06:16:09;;;;;;;8.10;3.40;;;;;;;6.99;60.83;102732.94;5105203;27;20039;-44
2023/03/28 06:18:35;;;;;;;8.10;2.63;;;;;;;7.06;59.88;102730.78;5101950;27;20031;-43
2023/03/28 06:21:00;;;;;;;10.73;2.90;;;;;;;7.08;60.55;102726.56;5104162;27;20047;-46
2023/03/28 06:23:25;;;;;;;13.57;3.30;;;;;;;7.19;60.36;102730.69;5103315;27;20112;-44
2023/03/28 06:25:51;;;;;;;13.02;3.90;;;;;;;7.22;60.38;102730.84;5100253;28;20031;-44
2023/03/28 06:28:16;;;;;;;9.60;2.95;;;;;;;7.30;59.97;102732.16;5104799;27;20032;-45
2023/03/28 06:30:47;;;;;;;10.32;3.10;;;;;;;7.31;59.62;102722.69;5101942;27;20119;-44
2023/03/28 06:33:12;;;;;;;8.23;3.15;;;;;;;7.42;59.45;102724.16;5105425;27;20425;-48
2023/03/28 06:35:37;;;;;;;12.35;3.03;;;;;;;7.80;59.23;102725.38;5101159;28;20176;-44
2023/03/28 06:38:03;;;;;;;11.15;3.38;;;;;;;8.22;57.99;102727.66;5104699;28;20040;-44
2023/03/28 06:40:28;;;;;;;10.43;3.30;;;;;;;8.74;56.41;102726.03;5104042;28;20085;-43
2023/03/28 06:42:53;;;;;;;13.05;3.28;;;;;;;9.38;54.25;102725.69;5099106;28;20478;-43
2023/03/28 06:45:19;;;;;;;11.50;3.30;;;;;;;10.04;51.92;102713.19;5104683;28;20036;-45
2023/03/28 06:47:44;;;;;;;14.40;3.15;;;;;;;10.61;50.38;102713.09;5101582;28;20024;-43
2023/03/28 06:50:10;;;;;;;9.18;3.20;;;;;;;10.91;48.59;102711.75;5106252;28;20456;-45
2023/03/28 06:52:36;;;;;;;11.05;3.05;;;;;;;10.61;48.74;102713.09;5099195;28;20027;-45
2023/03/28 06:55:03;;;;;;;10.15;3.58;;;;;;;10.72;48.45;102711.81;5107442;28;20035;-43
2023/03/28 06:57:28;;;;;;;12.25;3.28;;;;;;;10.82;47.97;102721.78;5108008;28;20517;-49
2023/03/28 06:59:53;;;;;;;12.52;3.95;;;;;;;10.70;49.10;102730.00;5106089;28;20042;-47
2023/03/28 07:02:19;;;;;;;11.70;3.40;;;;;;;10.51;49.20;102724.81;5110947;27;20019;-43
2023/03/28 07:04:44;;;;;;;11.88;3.50;;;;;;;10.96;47.90;102720.66;5106041;28;20386;-43
2023/03/28 07:07:09;;;;;;;12.07;3.70;;;;;;;11.11;47.75;102720.38;5109949;28;20054;-46
2023/03/28 07:09:35;;;;;;;12.40;3.75;;;;;;;10.81;48.17;102717.41;5106588;28;20043;-43
2023/03/28 07:12:02;;;;;;;12.13;3.95;;;;;;;11.17;47.56;102713.69;5110327;28;20047;-44
2023/03/28 07:14:27;;;;;;;15.02;4.18;;;;;;;11.15;46.91;102710.13;5110001;28;20173;-45
2023/03/28 07:16:52;;;;;;;15.05;3.90;;;;;;;11.57;46.07;102717.88;5105191;28;20059;-45
2023/03/28 07:19:18;;;;;;;14.85;4.60;;;;;;;11.06;47.56;102714.97;5109618;28;20081;-46
2023/03/28 07:21:43;;;;;;;12.65;4.15;;;;;;;11.07;47.67;102706.31;5107014;28;20239;-48
2023/03/28 07:24:08;;;;;;;12.82;4.40;;;;;;;11.30;47.69;102709.84;5106954;28;20053;-44
2023/03/28 07:26:34;;;;;;;14.45;4.57;;;;;;;11.68;46.59;102716.56;5105826;28;20536;-48
2023/03/28 07:28:59;;;;;;;11.02;4.00;;;;;;;12.26;46.07;102718.75;5108490;28;20063;-47
2023/03/28 07:31:24;;;;;;;14.15;4.72;;;;;;;11.31;46.56;102716.84;5106861;28;20050;-43
2023/03/28 07:33:50;;;;;;;10.02;4.38;;;;;;;11.91;46.29;102713.13;5105653;28;20036;-44
2023/03/28 07:36:18;;;;;;;12.57;4.55;;;;;;;11.99;46.23;102718.63;5107832;28;20024;-44
2023/03/28 07:38:44;;;;;;;12.25;4.28;;;;;;;11.75;45.93;102716.00;5103833;28;20520;-45
2023/03/28 07:41:10;;;;;;;14.10;4.20;;;;;;;11.43;46.80;102711.22;5107259;28;20040;-48
2023/03/28 07:43:38;;;;;;;10.88;3.90;;;;;;;11.45;46.15;102710.47;5103416;28;20027;-44
2023/03/28 07:46:06;;;;;;;13.30;4.00;;;;;;;11.68;45.54;102708.72;5108541;28;20031;-43
2023/03/28 07:48:33;;;;;;;12.50;4.07;;;;;;;11.33;45.91;102700.44;5105983;28;20077;-49
2023/03/28 07:51:00;;;;;;;9.40;3.55;;;;;;;11.37;46.47;102707.53;5107007;28;20027;-43
2023/03/28 07:53:25;;;;;;;10.45;3.97;;;;;;;11.12;46.41;102696.94;5105676;28;20516;-47
2023/03/28 07:55:51;;;;;;;9.98;3.78;;;;;;;11.42;46.10;102702.47;5082155;28;20024;-43
2023/03/28 07:58:17;;;;;;;10.20;4.22;;;;;;;11.26;47.40;102702.72;5085605;28;20028;-46
2023/03/28 08:00:44;;;;;;;12.30;4.15;;;;;;;11.25;46.91;102701.84;5078873;28;20066;-45
2023/03/28 08:03:09;;;;;;;15.95;4.18;;;;;;;10.82;46.55;102695.69;5082769;28;20036;-44
2023/03/28 08:05:36;;;;;;;13.15;3.90;;;;;;;11.21;46.09;102699.94;5082916;28;20032;-47
2023/03/28 08:08:02;;;;;;;10.18;3.90;;;;;;;11.28;45.73;102701.06;5083972;28;20028;-43
2023/03/28 08:10:28;;;;;;;12.23;4.28;;;;;;;11.47;45.65;102702.66;5086492;28;20048;-47
2023/03/28 08:12:53;;;;;;;14.90;4.07;;;;;;;11.48;45.30;102709.66;5081890;28;20110;-49
2023/03/28 08:15:18;;;;;;;8.43;3.80;;;;;;;11.16;44.89;102705.81;5085901;28;20480;-45
2023/03/28 08:17:44;;;;;;;13.77;3.95;;;;;;;11.47;44.75;102703.53;5082838;28;20056;-46
2023/03/28 08:20:10;;;;;;;11.65;3.92;;;;;;;11.37;45.32;102710.16;5085311;28;20040;-47
2023/03/28 08:22:36;;;;;;;9.00;3.63;;;;;;;11.91;44.07;102705.28;5082460;28;20375;-48
2023/03/28 08:25:01;;;;;;;15.05;3.90;;;;;;;11.85;43.65;102712.88;5084655;28;20047;-43
2023/03/28 08:27:26;;;;;;;13.20;3.30;;;;;;;11.25;42.65;102695.72;5087606;28;20072;-44
2023/03/28 08:29:52;;;;;;;9.75;3.10;;;;;;;11.48;43.09;102696.59;5083955;28;20031;-46
2023/03/28 08:32:17;;;;;;;10.75;3.10;;;;;;;10.13;43.76;102702.25;5089269;28;20072;-44
2023/03/28 08:34:43;;;;;;;11.05;3.03;;;;;;;10.22;43.71;102707.03;5086727;28;20505;-45
2023/03/28 08:37:08;;;;;;;9.30;3.10;;;;;;;10.67;43.25;102710.72;5087523;28;20375;-45
2023/03/28 08:39:34;;;;;;;8.35;2.83;;;;;;;11.12;42.32;102699.56;5082710;28;20032;-45
2023/03/28 08:42:15;;;;;;;7.65;3.08;;;;;;;11.27;42.33;102705.41;5086280;28;20024;-45
2023/03/28 08:44:40;;;;;;;7.20;3.33;;;;;;;10.88;42.79;102703.78;5085631;28;20119;-43
2023/03/28 08:47:16;;;;;;;8.60;3.60;;;;;;;11.14;41.77;102705.75;5083436;28;20117;-46
2023/03/28 08:49:47;;;;;;;9.13;3.72;;;;;;;10.95;41.98;102704.09;5082321;28;20036;-44
2023/03/28 08:52:16;;;;;;;12.40;3.50;;;;;;;10.99;41.49;102706.00;5087510;28;20087;-44
2023/03/28 08:54:41;;;;;;;12.02;3.90;;;;;;;11.16;41.21;102700.59;5082770;28;20387;-44
2023/03/28 08:57:15;;;;;;;10.57;3.50;;;;;;;10.82;41.38;102700.91;5086860;28;20035;-53
2023/03/28 08:59:53;;;;;;;12.20;3.85;;;;;;;10.11;42.44;102707.44;5082630;28;20036;-44
2023/03/28 09:02:21;;;;;;;8.77;4.07;;;;;;;10.55;43.13;102695.47;5086562;28;20061;-45
2023/03/28 09:04:47;;;;;;;11.48;3.95;;;;;;;11.04;41.39;102694.88;5083955;28;20585;-45
2023/03/28 09:07:25;;;;;;;9.65;3.53;;;;;;;10.88;40.40;102699.47;5093249;28;20567;-47
2023/03/28 09:10:02;;;;;;;11.00;4.03;;;;;;;11.24;40.49;102689.59;5085191;28;20040;-44
2023/03/28 09:12:39;;;;;;;11.20;3.85;;;;;;;11.26;40.55;102685.34;5086332;28;20730;-44
2023/03/28 09:15:22;;;;;;;10.40;4.30;;;;;;;11.59;40.10;102684.84;5087473;28;20039;-45
2023/03/28 09:17:59;;;;;;;10.15;4.20;;;;;;;11.99;40.35;102684.66;5085816;28;20085;-44
2023/03/28 09:20:31;;;;;;;12.25;3.92;;;;;;;11.46;39.17;102677.41;5087834;28;20040;-45
2023/03/28 09:23:11;;;;;;;11.02;4.03;;;;;;;11.40;38.99;102676.31;5083237;28;20039;-47
2023/03/28 09:25:44;;;;;;;8.52;4.20;;;;;;;11.67;38.86;102679.09;5090272;28;20046;-46
2023/03/28 09:28:28;;;;;;;8.85;4.15;;;;;;;11.55;38.72;102669.91;5085136;28;20024;-45
2023/03/28 09:30:57;;;;;;;12.20;4.50;;;;;;;11.62;39.01;102666.69;5085276;28;20040;-44
2023/03/28 09:33:30;;;;;;;10.70;3.75;;;;;;;12.10;38.42;102659.78;5085905;28;20066;-45
2023/03/28 09:35:56;;;;;;;11.40;3.40;;;;;;;11.86;38.09;102651.06;5081404;28;20035;-45
2023/03/28 09:38:28;;;;;;;9.98;3.88;;;;;;;12.26;37.42;102656.84;5085294;28;20082;-43
2023/03/28 09:40:58;;;;;;;8.95;3.20;;;;;;;12.04;36.52;102647.38;5081369;28;20486;-43
2023/03/28 09:43:39;;;;;;;12.57;3.67;;;;;;;12.43;36.54;102647.00;5086826;28;20119;-44
2023/03/28 09:46:14;;;;;;;8.07;3.20;;;;;;;12.20;37.52;102644.47;5083886;28;20035;-45
2023/03/28 09:48:39;;;;;;;8.23;3.20;;;;;;;12.73;36.23;102642.78;5083448;28;20038;-49
2023/03/28 09:51:14;;;;;;;10.93;3.60;;;;;;;12.76;36.17;102639.34;5089634;28;20028;-42
2023/03/28 09:53:41;;;;;;;9.75;3.47;;;;;;;12.40;36.82;102637.31;5084837;28;20075;-45
2023/03/28 09:56:33;;;;;;;8.00;3.53;;;;;;;12.35;36.38;102627.53;5088710;28;20051;-45
2023/03/28 09:59:01;;;;;;;7.22;3.05;;;;;;;12.35;37.04;102628.41;5083843;28;20101;-44
2023/03/28 10:01:45;;;;;;;8.77;3.35;;;;;;;12.20;36.18;102617.41;5086147;28;20028;-47
2023/03/28 10:04:20;;;;;;;8.88;2.95;;;;;;;12.35;35.75;102631.03;5080324;28;20024;-43
2023/03/28 10:06:47;;;;;;;8.60;3.03;;;;;;;12.50;36.08;102630.66;5082928;28;20036;-46
2023/03/28 10:09:20;;;;;;;9.63;3.13;;;;;;;12.63;35.29;102619.75;5087365;28;20042;-45
2023/03/28 10:11:58;;;;;;;8.80;3.28;;;;;;;12.41;35.13;102615.53;5080439;28;20214;-44
2023/03/28 10:14:32;;;;;;;9.32;2.60;;;;;;;12.55;35.79;102614.28;5084774;28;20032;-44
2023/03/28 10:17:26;;;;;;;6.78;2.50;;;;;;;12.46;34.59;102608.72;5083351;28;20123;-49
2023/03/28 10:19:57;;;;;;;6.70;2.67;;;;;;;12.76;33.76;102606.22;5087834;28;20044;-42
2023/03/28 10:22:30;;;;;;;7.50;2.42;;;;;;;12.92;33.84;102592.81;5087607;28;20043;-46
2023/03/28 10:24:56;;;;;;;6.28;2.20;;;;;;;13.04;32.95;102596.63;5079837;28;20028;-45
2023/03/28 10:27:36;;;;;;;5.30;2.53;;;;;;;13.19;33.21;102590.16;5082787;28;20127;-47
2023/03/28 10:30:23;;;;;;;6.28;2.35;;;;;;;13.50;32.99;102577.94;5079091;28;20027;-48
2023/03/28 10:33:17;;;;;;;7.20;2.40;;;;;;;13.31;32.60;102577.41;5079029;28;20442;-47
2023/03/28 10:35:53;;;;;;;7.00;2.40;;;;;;;12.45;33.39;102575.56;5078551;28;20054;-44
2023/03/28 10:38:20;;;;;;;6.88;2.30;;;;;;;12.68;33.35;102573.72;5082215;28;20032;-46
2023/03/28 10:41:20;;;;;;;5.20;2.28;;;;;;;12.81;32.83;102568.00;5078543;28;20040;-43
2023/03/28 10:43:45;;;;;;;7.75;2.13;;;;;;;13.17;33.02;102551.69;5078268;28;20571;-46
2023/03/28 10:46:19;;;;;;;8.27;2.28;;;;;;;13.26;32.39;102559.78;5082696;28;20036;-47
2023/03/28 10:48:49;;;;;;;5.38;2.28;;;;;;;13.25;31.48;102556.28;5078664;28;20409;-44
2023/03/28 10:51:20;;;;;;;6.00;2.10;;;;;;;13.31;31.24;102550.31;5082038;28;20123;-45
2023/03/28 10:54:19;;;;;;;6.32;2.25;;;;;;;13.72;30.85;102549.75;5078485;28;20036;-43
2023/03/28 10:56:51;;;;;;;5.03;2.03;;;;;;;14.12;30.73;102543.81;5078785;28;20066;-43
2023/03/28 10:59:28;;;;;;;4.78;2.20;;;;;;;13.73;30.79;102548.91;5082535;28;20028;-45
2023/03/28 11:02:06;;;;;;;5.63;2.35;;;;;;;13.12;31.33;102558.44;5078702;28;20146;-44
2023/03/28 11:04:53;;;;;;;7.25;2.60;;;;;;;12.74;32.33;102559.94;5078069;28;20063;-47
2023/03/28 11:07:43;;;;;;;8.75;3.03;;;;;;;12.82;31.76;102555.78;5082420;28;20035;-45
2023/03/28 11:10:11;;;;;;;8.70;3.10;;;;;;;12.49;33.54;102548.69;5078021;28;20163;-44
2023/03/28 11:12:50;;;;;;;8.48;3.10;;;;;;;12.71;33.80;102549.34;5082354;28;20054;-44
2023/03/28 11:15:26;;;;;;;9.35;3.40;;;;;;;12.07;33.77;102539.44;5078131;28;20036;-46
2023/03/28 11:18:09;;;;;;;9.68;3.75;;;;;;;11.77;34.80;102536.66;5078088;28;20066;-43
2023/03/28 11:20:50;;;;;;;7.72;3.35;;;;;;;11.76;34.97;102541.00;5078955;28;20430;-44
2023/03/28 11:23:18;;;;;;;8.55;3.53;;;;;;;12.16;34.79;102539.72;5081808;28;20032;-43
2023/03/28 11:26:20;;;;;;;12.52;4.20;;;;;;;11.86;35.81;102533.47;5090659;28;20049;-43
2023/03/28 11:28:55;;;;;;;11.57;4.25;;;;;;;12.05;36.01;102522.78;5099236;28;20543;-47
2023/03/28 11:31:42;;;;;;;9.63;4.30;;;;;;;12.60;35.27;102513.28;5103485;28;20050;-49
2023/03/28 11:34:20;;;;;;;10.98;4.30;;;;;;;12.93;35.11;102499.41;5099435;28;20019;-44
2023/03/28 11:36:58;;;;;;;15.85;4.57;;;;;;;12.94;35.40;102490.72;5098793;28;20123;-45
2023/03/28 11:39:47;;;;;;;15.05;4.55;;;;;;;12.81;34.98;102485.97;5104015;28;20031;-44
2023/03/28 11:42:20;;;;;;;10.93;4.72;;;;;;;12.85;35.55;102480.88;5101766;27;20085;-46